Time;durP1;ratioP1;P1;durP2;ratioP2;P2;SDS_P1;SDS_P2;PMS_P1;PMS_P2;Temp;Humidity;BMP_temperature;BMP_pressure;BME280_temperature;BME280_humidity;BME280_pressure;Samples;Min_cycle;Max_cycle;Signal;HPM_P1;HPM_P2
2021/07/13 00:00:37;;;;;;;;;7.33;7.33;;;;;-147.17;100.00;59696.56;5013337;28;51272;-48
2021/07/13 00:03:05;;;;;;;;;5.33;5.33;;;;;-147.17;100.00;59696.56;5010469;28;51930;-48
2021/07/13 00:05:31;;;;;;;;;8.33;7.67;;;;;-147.17;100.00;59696.56;5014916;28;50993;-50
2021/07/13 00:07:56;;;;;;;;;7.33;7.00;;;;;-147.17;100.00;59696.56;5014543;28;51156;-47
2021/07/13 00:10:24;;;;;;;;;7.00;7.00;;;;;-147.17;100.00;59696.56;5014867;28;51081;-51
2021/07/13 00:12:50;;;;;;;;;8.33;7.67;;;;;-147.17;100.00;59696.56;5014888;28;52143;-48
2021/07/13 00:15:26;;;;;;;;;9.33;9.33;;;;;-147.17;100.00;59696.56;5014832;28;50986;-52
2021/07/13 00:17:53;;;;;;;;;7.67;7.67;;;;;-147.17;100.00;59696.56;5013676;28;50926;-51
2021/07/13 00:20:19;;;;;;;;;10.00;10.00;;;;;-147.17;100.00;59696.56;5014380;28;51350;-49
2021/07/13 00:22:45;;;;;;;;;13.00;13.00;;;;;-147.17;100.00;59696.56;5013903;28;51240;-48
2021/07/13 00:25:13;;;;;;;;;10.67;10.33;;;;;-147.17;100.00;59696.56;5014507;28;51100;-46
2021/07/13 00:27:40;;;;;;;;;10.33;10.33;;;;;-147.17;100.00;59696.56;5012444;28;51115;-48
2021/07/13 00:30:07;;;;;;;;;10.33;10.33;;;;;-147.17;100.00;59696.56;5014840;28;51005;-50
2021/07/13 00:32:32;;;;;;;;;15.33;12.67;;;;;-147.17;100.00;59696.56;5014693;28;50943;-51
2021/07/13 00:34:58;;;;;;;;;13.00;12.00;;;;;-147.17;100.00;59696.56;5014528;28;51223;-51
2021/07/13 00:37:23;;;;;;;;;14.33;12.33;;;;;-147.17;100.00;59696.56;5013818;28;51015;-47
2021/07/13 00:39:49;;;;;;;;;16.00;15.33;;;;;-147.17;100.00;59696.56;5014074;28;51113;-47
2021/07/13 00:42:16;;;;;;;;;14.00;12.67;;;;;-147.17;100.00;59696.56;5014279;28;52234;-47
2021/07/13 00:44:42;;;;;;;;;14.33;14.33;;;;;-147.17;100.00;59696.56;5014659;28;50982;-50
2021/07/13 00:47:08;;;;;;;;;15.33;14.67;;;;;-147.17;100.00;59696.56;5014081;28;51238;-50
2021/07/13 00:49:34;;;;;;;;;17.75;17.25;;;;;-147.17;100.00;59696.56;5014191;28;50918;-49
2021/07/13 00:52:00;;;;;;;;;13.67;13.67;;;;;-147.17;100.00;59696.56;5014232;28;51866;-49
2021/07/13 00:54:27;;;;;;;;;17.00;15.25;;;;;-147.17;100.00;59696.56;5013259;28;50996;-48
2021/07/13 00:56:55;;;;;;;;;17.33;16.67;;;;;-147.17;100.00;59696.56;5014525;28;51212;-48
2021/07/13 00:59:20;;;;;;;;;14.67;14.67;;;;;-147.17;100.00;59696.56;5013901;28;51045;-52
2021/07/13 01:01:47;;;;;;;;;18.00;16.67;;;;;-147.17;100.00;59696.56;5014117;28;51083;-50
2021/07/13 01:04:14;;;;;;;;;18.00;18.00;;;;;-147.17;100.00;59696.56;5014448;28;50966;-49
2021/07/13 01:06:49;;;;;;;;;19.00;18.75;;;;;-147.17;100.00;59696.56;5014130;28;51097;-50
2021/07/13 01:09:29;;;;;;;;;21.00;20.00;;;;;-147.17;100.00;59696.56;5013970;28;51416;-51
2021/07/13 01:12:05;;;;;;;;;18.00;16.75;;;;;-147.17;100.00;59696.56;5012518;28;50984;-49
2021/07/13 01:14:39;;;;;;;;;17.00;16.50;;;;;-147.17;100.00;59696.56;5014252;28;51005;-51
2021/07/13 01:17:13;;;;;;;;;19.00;19.00;;;;;-147.17;100.00;59696.56;5013091;28;51296;-52
2021/07/13 01:19:50;;;;;;;;;20.00;19.50;;;;;-147.17;100.00;59696.56;5012483;28;51205;-48
2021/07/13 01:22:22;;;;;;;;;18.67;18.33;;;;;-147.17;100.00;59696.56;5000672;28;51250;-49
2021/07/13 01:25:45;;;;;;;;;22.25;22.25;;;;;-147.17;100.00;59696.56;5013664;28;51013;-47
2021/07/13 01:28:18;;;;;;;;;19.50;19.50;;;;;-147.17;100.00;59696.56;4952130;28;51075;-50
2021/07/13 01:30:50;;;;;;;;;20.00;18.50;;;;;-147.17;100.00;59696.56;5013225;28;50867;-51
2021/07/13 01:33:19;;;;;;;;;17.50;17.50;;;;;-147.17;100.00;59696.56;5013424;28;52933;-49
2021/07/13 01:35:56;;;;;;;;;22.00;20.25;;;;;-147.17;100.00;59696.56;5013692;28;51096;-49
2021/07/13 01:38:25;;;;;;;;;20.00;20.00;;;;;-147.17;100.00;59696.56;5011727;28;51171;-48
2021/07/13 01:40:58;;;;;;;;;19.25;18.00;;;;;-147.17;100.00;59696.56;5013430;28;51231;-51
2021/07/13 01:43:23;;;;;;;;;19.25;18.25;;;;;-147.17;100.00;59696.56;5013931;28;52283;-50
2021/07/13 01:45:49;;;;;;;;;20.00;18.25;;;;;-147.17;100.00;59696.56;5013636;28;51194;-48
2021/07/13 01:48:15;;;;;;;;;17.25;17.25;;;;;-147.17;100.00;59696.56;5013374;28;51107;-49
2021/07/13 01:50:43;;;;;;;;;21.75;20.50;;;;;-147.17;100.00;59696.56;5013759;28;51306;-48
2021/07/13 01:53:11;;;;;;;;;17.75;17.50;;;;;-147.17;100.00;59696.56;5010232;28;51894;-51
2021/07/13 01:55:38;;;;;;;;;17.75;17.50;;;;;-147.17;100.00;59696.56;5013424;28;51247;-48
2021/07/13 01:58:04;;;;;;;;;16.50;16.25;;;;;-147.17;100.00;59696.56;5013018;28;51017;-50
2021/07/13 02:00:30;;;;;;;;;19.00;18.25;;;;;-147.17;100.00;59696.56;5013583;28;51152;-47
2021/07/13 02:02:57;;;;;;;;;17.00;17.00;;;;;-147.17;100.00;59696.56;5013408;28;51001;-50
2021/07/13 02:05:25;;;;;;;;;17.00;17.00;;;;;-147.17;100.00;59696.56;5013400;28;51210;-52
2021/07/13 02:07:53;;;;;;;;;15.50;15.00;;;;;-147.17;100.00;59696.56;5011828;28;52235;-50
2021/07/13 02:10:19;;;;;;;;;17.33;15.33;;;;;-147.17;100.00;59696.56;5013037;28;51261;-49
2021/07/13 02:12:46;;;;;;;;;17.25;16.50;;;;;-147.17;100.00;59696.56;5012296;28;51706;-51
2021/07/13 02:15:12;;;;;;;;;18.00;18.00;;;;;-147.17;100.00;59696.56;5011709;28;51135;-50
2021/07/13 02:17:37;;;;;;;;;17.00;16.00;;;;;-147.17;100.00;59696.56;5011567;28;51144;-47
2021/07/13 02:20:12;;;;;;;;;19.33;17.00;;;;;-147.17;100.00;59696.56;5013303;28;51317;-48
2021/07/13 02:22:38;;;;;;;;;14.67;14.67;;;;;-147.17;100.00;59696.56;5012741;28;51081;-51
2021/07/13 02:25:06;;;;;;;;;16.25;16.25;;;;;-147.17;100.00;59696.56;5012196;28;51033;-56
2021/07/13 02:27:34;;;;;;;;;13.00;12.67;;;;;-147.17;100.00;59696.56;5012500;28;51140;-48
2021/07/13 02:30:07;;;;;;;;;14.75;13.75;;;;;-147.17;100.00;59696.56;5012967;28;51018;-50
2021/07/13 02:32:45;;;;;;;;;16.33;15.33;;;;;-147.17;100.00;59696.56;5011080;28;50985;-48
2021/07/13 02:35:13;;;;;;;;;12.33;12.33;;;;;-147.17;100.00;59696.56;5002012;28;51181;-48
2021/07/13 02:37:41;;;;;;;;;14.33;13.33;;;;;-147.17;100.00;59696.56;5005386;28;50888;-49
2021/07/13 02:40:09;;;;;;;;;15.50;15.50;;;;;-147.17;100.00;59696.56;4993040;28;50903;-50
2021/07/13 02:42:35;;;;;;;;;12.00;12.00;;;;;-147.17;100.00;59696.56;5008937;28;53259;-48
2021/07/13 02:45:02;;;;;;;;;17.00;15.00;;;;;-147.17;100.00;59696.56;5012029;28;51024;-49
2021/07/13 02:47:30;;;;;;;;;14.50;14.25;;;;;-147.17;100.00;59696.56;5012360;28;52041;-49
2021/07/13 02:49:56;;;;;;;;;15.00;15.00;;;;;-147.17;100.00;59696.56;5012931;28;51264;-48
2021/07/13 02:52:25;;;;;;;;;13.33;13.33;;;;;-147.17;100.00;59696.56;5012419;28;50896;-48
2021/07/13 02:54:57;;;;;;;;;13.33;12.67;;;;;-147.17;100.00;59696.56;5011185;28;51065;-48
2021/07/13 02:57:24;;;;;;;;;15.00;14.00;;;;;-147.17;100.00;59696.56;5011202;28;51055;-48
2021/07/13 02:59:51;;;;;;;;;16.00;16.00;;;;;-147.17;100.00;59696.56;5012902;28;51410;-50
2021/07/13 03:02:20;;;;;;;;;15.00;15.00;;;;;-147.17;100.00;59696.56;5012276;28;51861;-48
2021/07/13 03:04:47;;;;;;;;;16.33;15.33;;;;;-147.17;100.00;59696.56;5010244;28;51000;-50
2021/07/13 03:07:13;;;;;;;;;13.67;13.33;;;;;-147.17;100.00;59696.56;5011524;28;51274;-49
2021/07/13 03:09:39;;;;;;;;;13.33;12.67;;;;;-147.17;100.00;59696.56;5012586;28;51155;-48
2021/07/13 03:12:11;;;;;;;;;13.33;13.33;;;;;-147.17;100.00;59696.56;5012135;28;51140;-49
2021/07/13 03:14:42;;;;;;;;;16.33;14.67;;;;;-147.17;100.00;59696.56;5012566;28;51017;-49
2021/07/13 03:17:09;;;;;;;;;17.00;16.25;;;;;-147.17;100.00;59696.56;5011701;28;51205;-48
2021/07/13 03:19:36;;;;;;;;;14.67;14.33;;;;;-147.17;100.00;59696.56;5010388;28;51446;-50
2021/07/13 03:22:04;;;;;;;;;15.50;14.75;;;;;-147.17;100.00;59696.56;5007316;28;51808;-50
2021/07/13 03:24:31;;;;;;;;;13.67;13.67;;;;;-147.17;100.00;59696.56;5011894;28;51002;-51
2021/07/13 03:26:59;;;;;;;;;13.33;13.33;;;;;-147.17;100.00;59696.56;5010751;28;51200;-47
2021/07/13 03:29:26;;;;;;;;;14.33;14.33;;;;;-147.17;100.00;59696.56;5011696;28;51173;-50
2021/07/13 03:31:52;;;;;;;;;13.33;13.33;;;;;-147.17;100.00;59696.56;5012049;28;51995;-50
2021/07/13 03:34:18;;;;;;;;;15.67;14.67;;;;;-147.17;100.00;59696.56;5012188;28;50965;-51
2021/07/13 03:36:45;;;;;;;;;12.00;11.67;;;;;-147.17;100.00;59696.56;5011696;28;51116;-50
2021/07/13 03:39:10;;;;;;;;;13.33;13.33;;;;;-147.17;100.00;59696.56;5002621;28;51213;-49
2021/07/13 03:41:36;;;;;;;;;13.33;13.33;;;;;-147.17;100.00;59696.56;5011356;28;51936;-51
2021/07/13 03:44:03;;;;;;;;;12.33;12.33;;;;;-147.17;100.00;59696.56;5012418;28;51312;-51
2021/07/13 03:46:33;;;;;;;;;14.67;14.67;;;;;-147.17;100.00;59696.56;5011231;28;51199;-50
2021/07/13 03:48:59;;;;;;;;;14.33;14.00;;;;;-147.17;100.00;59696.56;5011689;28;51113;-50
2021/07/13 03:51:44;;;;;;;;;13.67;13.67;;;;;-147.17;100.00;59696.56;5003620;28;52016;-51
2021/07/13 03:54:11;;;;;;;;;15.33;15.33;;;;;-147.17;100.00;59696.56;5011692;28;51044;-51
2021/07/13 03:56:38;;;;;;;;;17.00;16.67;;;;;-147.17;100.00;59696.56;5010249;28;51151;-50
2021/07/13 03:59:04;;;;;;;;;18.00;17.00;;;;;-147.17;100.00;59696.56;5011422;28;51005;-48
2021/07/13 04:01:30;;;;;;;;;17.33;17.00;;;;;-147.17;100.00;59696.56;5011831;28;51213;-48
2021/07/13 04:03:55;;;;;;;;;16.00;16.00;;;;;-147.17;100.00;59696.56;5011743;28;51034;-49
2021/07/13 04:06:21;;;;;;;;;18.00;17.00;;;;;-147.17;100.00;59696.56;5011122;28;51054;-49
2021/07/13 04:08:46;;;;;;;;;16.25;16.25;;;;;-147.17;100.00;59696.56;5011464;28;51383;-48
2021/07/13 04:11:12;;;;;;;;;18.00;18.00;;;;;-147.17;100.00;59696.56;5011729;28;51080;-49
2021/07/13 04:13:37;;;;;;;;;17.50;17.50;;;;;-147.17;100.00;59696.56;5011136;28;50898;-49
2021/07/13 04:16:03;;;;;;;;;19.75;19.50;;;;;-147.17;100.00;59696.56;5012041;28;52726;-48
2021/07/13 04:18:29;;;;;;;;;16.50;16.00;;;;;-147.17;100.00;59696.56;5015264;28;51099;-48
2021/07/13 04:20:54;;;;;;;;;19.25;19.00;;;;;-147.17;100.00;59696.56;5014658;28;51159;-51
2021/07/13 04:23:19;;;;;;;;;19.75;18.25;;;;;-147.17;100.00;59696.56;5030004;28;51136;-47
2021/07/13 04:25:45;;;;;;;;;20.50;19.00;;;;;-147.17;100.00;59696.56;5004584;28;51524;-49
2021/07/13 04:28:10;;;;;;;;;20.75;20.75;;;;;-147.17;100.00;59696.56;5012568;28;51037;-49
2021/07/13 04:30:37;;;;;;;;;21.25;20.00;;;;;-147.17;100.00;59696.56;5014347;28;51025;-48
2021/07/13 04:33:02;;;;;;;;;20.25;18.75;;;;;-147.17;100.00;59696.56;5014819;28;51172;-48
2021/07/13 04:35:28;;;;;;;;;21.00;19.75;;;;;-147.17;100.00;59696.56;5014237;28;51308;-48
2021/07/13 04:37:53;;;;;;;;;22.50;21.00;;;;;-147.17;100.00;59696.56;5010892;28;51335;-47
2021/07/13 04:40:18;;;;;;;;;22.50;20.25;;;;;-147.17;100.00;59696.56;4993721;28;50995;-47
2021/07/13 04:42:44;;;;;;;;;21.25;19.50;;;;;-147.17;100.00;59696.56;5012320;28;51210;-47
2021/07/13 04:45:10;;;;;;;;;23.50;22.75;;;;;-147.17;100.00;59696.56;5014139;28;51082;-48
2021/07/13 04:47:36;;;;;;;;;22.50;22.00;;;;;-147.17;100.00;59696.56;5014270;28;51088;-49
2021/07/13 04:50:01;;;;;;;;;21.25;20.25;;;;;-147.17;100.00;59696.56;5014371;28;52651;-48
2021/07/13 04:52:27;;;;;;;;;20.00;19.00;;;;;-147.17;100.00;59696.56;5014670;28;51350;-48
2021/07/13 04:54:52;;;;;;;;;25.75;23.75;;;;;-147.17;100.00;59696.56;5013698;28;51347;-46
2021/07/13 04:57:17;;;;;;;;;21.00;19.50;;;;;-147.17;100.00;59696.56;5011368;28;50927;-46
2021/07/13 04:59:43;;;;;;;;;20.25;20.25;;;;;-147.17;100.00;59696.56;5013541;28;51897;-48
2021/07/13 05:02:08;;;;;;;;;21.75;20.75;;;;;-147.17;100.00;59696.56;5014236;28;51133;-46
2021/07/13 05:04:34;;;;;;;;;24.00;21.75;;;;;-147.17;100.00;59696.56;5013740;28;51851;-47
2021/07/13 05:06:59;;;;;;;;;21.75;20.50;;;;;-147.17;100.00;59696.56;5013641;28;51201;-48
2021/07/13 05:09:25;;;;;;;;;21.00;20.25;;;;;-147.17;100.00;59696.56;5013351;28;51877;-49
2021/07/13 05:11:51;;;;;;;;;23.50;21.50;;;;;-147.17;100.00;59696.56;5013909;28;51123;-49
2021/07/13 05:14:16;;;;;;;;;24.25;22.00;;;;;-147.17;100.00;59696.56;5014124;28;51159;-47
2021/07/13 05:16:42;;;;;;;;;21.75;21.50;;;;;-147.17;100.00;59696.56;5012608;28;51410;-47
2021/07/13 05:19:09;;;;;;;;;24.75;20.75;;;;;-147.17;100.00;59696.56;5014184;28;52140;-49
2021/07/13 05:21:35;;;;;;;;;17.00;17.00;;;;;-147.17;100.00;59696.56;5013843;28;50938;-47
2021/07/13 05:24:00;;;;;;;;;15.25;14.25;;;;;-147.17;100.00;59696.56;5013117;28;51007;-47
2021/07/13 05:26:28;;;;;;;;;22.00;20.50;;;;;-147.17;100.00;59696.56;5011996;28;51828;-49
2021/07/13 05:28:53;;;;;;;;;19.50;18.50;;;;;-147.17;100.00;59696.56;5014041;28;52044;-49
2021/07/13 05:31:19;;;;;;;;;21.00;20.75;;;;;-147.17;100.00;59696.56;5012655;28;51250;-50
2021/07/13 05:33:44;;;;;;;;;23.00;19.75;;;;;-147.17;100.00;59696.56;5004353;28;51082;-48
2021/07/13 05:36:09;;;;;;;;;22.50;21.25;;;;;-147.17;100.00;59696.56;5001895;28;51292;-50
2021/07/13 05:38:35;;;;;;;;;20.25;20.25;;;;;-147.17;100.00;59696.56;5007609;28;51304;-47
2021/07/13 05:41:00;;;;;;;;;23.00;22.00;;;;;-147.17;100.00;59696.56;5011787;28;51092;-46
2021/07/13 05:43:26;;;;;;;;;23.50;21.25;;;;;-147.17;100.00;59696.56;5010688;28;51022;-50
2021/07/13 05:45:51;;;;;;;;;21.75;21.25;;;;;-147.17;100.00;59696.56;5013610;28;51446;-49
2021/07/13 05:48:16;;;;;;;;;21.50;20.75;;;;;-147.17;100.00;59696.56;5003677;28;52007;-50
2021/07/13 05:50:42;;;;;;;;;23.25;21.50;;;;;-147.17;100.00;59696.56;4993590;28;51104;-48
2021/07/13 05:53:07;;;;;;;;;24.25;23.50;;;;;-147.17;100.00;59696.56;4992237;28;51300;-46
2021/07/13 05:55:32;;;;;;;;;21.00;21.00;;;;;-147.17;100.00;59696.56;5003369;28;51139;-50
2021/07/13 05:57:58;;;;;;;;;24.00;22.50;;;;;-147.17;100.00;59696.56;4992054;28;52925;-46
2021/07/13 06:00:23;;;;;;;;;21.75;20.75;;;;;-147.17;100.00;59696.56;5008299;28;51081;-47
2021/07/13 06:02:49;;;;;;;;;20.75;20.00;;;;;-147.17;100.00;59696.56;5012855;28;50998;-47
2021/07/13 06:05:14;;;;;;;;;19.50;18.25;;;;;-147.17;100.00;59696.56;5012880;28;51059;-50
2021/07/13 06:07:44;;;;;;;;;22.00;21.50;;;;;-147.17;100.00;59696.56;4991457;28;53326;-48
2021/07/13 06:10:11;;;;;;;;;22.00;19.75;;;;;-147.17;100.00;59696.56;5019169;28;51130;-50
2021/07/13 06:12:37;;;;;;;;;20.75;20.50;;;;;-147.17;100.00;59696.56;5012783;28;51100;-51
2021/07/13 06:15:04;;;;;;;;;23.50;23.00;;;;;-147.17;100.00;59696.56;5013197;28;51211;-51
2021/07/13 06:17:30;;;;;;;;;22.00;21.75;;;;;-147.17;100.00;59696.56;5012990;28;50921;-49
2021/07/13 06:19:55;;;;;;;;;25.25;25.00;;;;;-147.17;100.00;59696.56;5012458;28;51028;-50
2021/07/13 06:22:20;;;;;;;;;20.50;20.50;;;;;-147.17;100.00;59696.56;5012897;28;51086;-49
2021/07/13 06:24:46;;;;;;;;;23.00;22.00;;;;;-147.17;100.00;59696.56;5012255;28;51433;-47
2021/07/13 06:27:11;;;;;;;;;24.00;23.50;;;;;-147.17;100.00;59696.56;5012900;28;51116;-48
2021/07/13 06:29:36;;;;;;;;;26.25;25.50;;;;;-147.17;100.00;59696.56;5011937;28;52577;-55
2021/07/13 06:32:02;;;;;;;;;25.25;24.00;;;;;-147.17;100.00;59696.56;5012778;28;50939;-48
2021/07/13 06:34:27;;;;;;;;;22.50;22.50;;;;;-147.17;100.00;59696.56;5012765;28;50939;-50
2021/07/13 06:36:53;;;;;;;;;23.75;22.50;;;;;-147.17;100.00;59696.56;5011316;28;51133;-47
2021/07/13 06:39:18;;;;;;;;;26.25;23.50;;;;;-147.17;100.00;59696.56;4996743;28;51154;-48
2021/07/13 06:41:44;;;;;;;;;26.25;24.50;;;;;-147.17;100.00;59696.56;4992935;28;51045;-47
2021/07/13 06:44:10;;;;;;;;;24.50;23.50;;;;;-147.17;100.00;59696.56;4992585;28;50895;-47
2021/07/13 06:46:36;;;;;;;;;27.25;26.50;;;;;-147.17;100.00;59696.56;4991243;28;52214;-48
2021/07/13 06:49:02;;;;;;;;;25.00;24.75;;;;;-147.17;100.00;59696.56;4992046;28;50938;-49
2021/07/13 06:51:31;;;;;;;;;24.50;22.50;;;;;-147.17;100.00;59696.56;4991079;28;51099;-48
2021/07/13 06:53:56;;;;;;;;;28.25;26.75;;;;;-147.17;100.00;59696.56;4991591;28;50962;-50
2021/07/13 06:56:21;;;;;;;;;24.25;23.75;;;;;-147.17;100.00;59696.56;4992045;28;51133;-48
2021/07/13 06:58:47;;;;;;;;;27.25;25.75;;;;;-147.17;100.00;59696.56;4992085;28;51124;-48
2021/07/13 07:01:12;;;;;;;;;26.25;25.75;;;;;-147.17;100.00;59696.56;4992379;28;51028;-49
2021/07/13 07:03:38;;;;;;;;;27.00;23.50;;;;;-147.17;100.00;59696.56;4997802;28;51128;-49
2021/07/13 07:06:03;;;;;;;;;27.25;27.25;;;;;-147.17;100.00;59696.56;5012815;28;52069;-49
2021/07/13 07:08:28;;;;;;;;;24.00;22.00;;;;;-147.17;100.00;59696.56;5012857;28;51058;-49
2021/07/13 07:10:54;;;;;;;;;30.75;29.00;;;;;-147.17;100.00;59696.56;5012546;28;51076;-50
2021/07/13 07:13:19;;;;;;;;;29.75;28.75;;;;;-147.17;100.00;59696.56;5013060;28;50891;-48
2021/07/13 07:15:44;;;;;;;;;30.50;28.50;;;;;-147.17;100.00;59696.56;5011294;28;51063;-48
2021/07/13 07:18:10;;;;;;;;;24.25;20.25;;;;;-147.17;100.00;59696.56;5011747;28;51081;-52
2021/07/13 07:20:35;;;;;;;;;27.50;25.50;;;;;-147.17;100.00;59696.56;5012142;28;51165;-48
2021/07/13 07:23:01;;;;;;;;;27.00;25.25;;;;;-147.17;100.00;59696.56;5011817;28;51125;-52
2021/07/13 07:25:30;;;;;;;;;29.75;28.75;;;;;-147.17;100.00;59696.56;5011423;28;51025;-51
2021/07/13 07:27:57;;;;;;;;;27.00;25.00;;;;;-147.17;100.00;59696.56;5011904;28;51714;-49
2021/07/13 07:30:24;;;;;;;;;31.33;26.33;;;;;-147.17;100.00;59696.56;5011465;28;51030;-50
2021/07/13 07:32:50;;;;;;;;;26.00;25.50;;;;;-147.17;100.00;59696.56;5010815;28;51030;-46
2021/07/13 07:35:16;;;;;;;;;24.00;23.00;;;;;-147.17;100.00;59696.56;5011775;28;51654;-50
2021/07/13 07:37:42;;;;;;;;;24.00;22.67;;;;;-147.17;100.00;59696.56;5017578;28;51124;-49
2021/07/13 07:40:11;;;;;;;;;30.00;28.33;;;;;-147.17;100.00;59696.56;5010249;28;51017;-50
2021/07/13 07:42:37;;;;;;;;;24.67;24.33;;;;;-147.17;100.00;59696.56;5010866;28;51357;-52
2021/07/13 07:45:04;;;;;;;;;25.00;23.33;;;;;-147.17;100.00;59696.56;5011369;28;51991;-49
2021/07/13 07:47:30;;;;;;;;;22.67;22.67;;;;;-147.17;100.00;59696.56;5010805;28;51087;-49
2021/07/13 07:49:55;;;;;;;;;28.75;27.50;;;;;-147.17;100.00;59696.56;5011516;28;51738;-50
2021/07/13 07:52:21;;;;;;;;;26.67;24.33;;;;;-147.17;100.00;59696.56;5015653;28;51174;-48
2021/07/13 07:54:46;;;;;;;;;22.33;22.33;;;;;-147.17;100.00;59696.56;5012780;28;52202;-52
2021/07/13 07:57:12;;;;;;;;;20.33;19.67;;;;;-147.17;100.00;59696.56;5014801;28;51136;-50
2021/07/13 07:59:37;;;;;;;;;22.67;21.67;;;;;-147.17;100.00;59696.56;5013798;28;50992;-52
2021/07/13 08:02:03;;;;;;;;;25.50;25.00;;;;;-147.17;100.00;59696.56;5014910;28;51097;-50
2021/07/13 08:04:28;;;;;;;;;25.00;22.00;;;;;-147.17;100.00;59696.56;5013455;28;51892;-51
2021/07/13 08:06:54;;;;;;;;;21.33;20.00;;;;;-147.17;100.00;59696.56;5014757;28;50909;-49
2021/07/13 08:09:20;;;;;;;;;19.00;18.00;;;;;-147.17;100.00;59696.56;5014670;28;50948;-51
2021/07/13 08:11:45;;;;;;;;;21.33;20.67;;;;;-147.17;100.00;59696.56;5015035;28;50860;-51
2021/07/13 08:14:10;;;;;;;;;18.33;17.67;;;;;-147.17;100.00;59696.56;5014812;28;51966;-49
2021/07/13 08:16:37;;;;;;;;;18.67;17.67;;;;;-147.17;100.00;59696.56;5015045;28;51120;-48
2021/07/13 08:19:03;;;;;;;;;19.00;18.67;;;;;-147.17;100.00;59696.56;5015061;28;51041;-55
2021/07/13 08:21:28;;;;;;;;;19.00;18.00;;;;;-147.17;100.00;59696.56;5015105;28;51250;-49
2021/07/13 08:23:53;;;;;;;;;19.67;18.00;;;;;-147.17;100.00;59696.56;5014358;28;52026;-52
2021/07/13 08:26:19;;;;;;;;;21.67;20.00;;;;;-147.17;100.00;59696.56;5014556;28;51057;-53
2021/07/13 08:28:44;;;;;;;;;22.00;21.67;;;;;-147.17;100.00;59696.56;5013311;28;51068;-50
2021/07/13 08:31:09;;;;;;;;;24.75;20.00;;;;;-147.17;100.00;59696.56;5014887;28;51059;-51
2021/07/13 08:33:35;;;;;;;;;28.67;22.67;;;;;-147.17;100.00;59696.56;5014280;28;50992;-49
2021/07/13 08:36:00;;;;;;;;;20.33;20.00;;;;;-147.17;100.00;59696.56;5014702;28;50985;-48
2021/07/13 08:38:25;;;;;;;;;17.00;17.00;;;;;-147.17;100.00;59696.56;5006674;28;51134;-52
2021/07/13 08:40:52;;;;;;;;;21.33;21.33;;;;;-147.17;100.00;59696.56;4994413;28;51351;-51
2021/07/13 08:43:17;;;;;;;;;21.67;20.00;;;;;-147.17;100.00;59696.56;4994818;28;52336;-47
2021/07/13 08:45:43;;;;;;;;;17.33;16.67;;;;;-147.17;100.00;59696.56;4994331;28;51135;-50
2021/07/13 08:48:13;;;;;;;;;20.33;19.33;;;;;-147.17;100.00;59696.56;5001505;28;51025;-48
2021/07/13 08:50:39;;;;;;;;;20.33;20.00;;;;;-147.17;100.00;59696.56;5014261;28;51338;-50
2021/07/13 08:53:05;;;;;;;;;28.00;26.00;;;;;-147.17;100.00;59696.56;5014082;28;52111;-52
2021/07/13 08:55:30;;;;;;;;;19.67;19.00;;;;;-147.17;100.00;59696.56;5011785;28;52053;-52
2021/07/13 08:57:56;;;;;;;;;23.00;23.00;;;;;-147.17;100.00;59696.56;5013673;28;51069;-51
2021/07/13 09:00:22;;;;;;;;;20.33;18.67;;;;;-147.17;100.00;59696.56;5013970;28;51399;-49
2021/07/13 09:03:30;;;;;;;;;19.00;18.33;;;;;-147.17;100.00;59696.56;5012863;28;51361;-53
2021/07/13 09:05:57;;;;;;;;;20.67;19.00;;;;;-147.17;100.00;59696.56;4952686;28;51092;-52
2021/07/13 09:08:35;;;;;;;;;24.33;23.67;;;;;-147.17;100.00;59696.56;4950510;28;50966;-49
2021/07/13 09:11:06;;;;;;;;;21.00;20.00;;;;;-147.17;100.00;59696.56;4988442;28;51286;-49
2021/07/13 09:13:35;;;;;;;;;17.33;17.33;;;;;-147.17;100.00;59696.56;5013677;28;51967;-51
2021/07/13 09:16:03;;;;;;;;;22.00;20.00;;;;;-147.17;100.00;59696.56;5012961;28;51093;-50
2021/07/13 09:18:32;;;;;;;;;20.67;20.00;;;;;-147.17;100.00;59696.56;5013382;28;50873;-51
2021/07/13 09:21:13;;;;;;;;;20.00;20.00;;;;;-147.17;100.00;59696.56;5012726;28;51121;-49
2021/07/13 09:24:11;;;;;;;;;22.00;20.67;;;;;-147.17;100.00;59696.56;5012991;28;50973;-49
2021/07/13 09:26:50;;;;;;;;;23.00;20.67;;;;;-147.17;100.00;59696.56;5013303;28;51037;-50
2021/07/13 09:29:44;;;;;;;;;22.33;22.00;;;;;-147.17;100.00;59696.56;5013280;28;51241;-52
2021/07/13 09:32:21;;;;;;;;;19.67;18.33;;;;;-147.17;100.00;59696.56;5011713;28;51097;-52
2021/07/13 09:34:53;;;;;;;;;22.67;20.00;;;;;-147.17;100.00;59696.56;5012781;28;52212;-49
2021/07/13 09:37:24;;;;;;;;;21.67;21.00;;;;;-147.17;100.00;59696.56;5012544;28;51020;-48
2021/07/13 09:39:55;;;;;;;;;21.33;20.33;;;;;-147.17;100.00;59696.56;4993987;28;51382;-48
2021/07/13 09:42:22;;;;;;;;;18.33;18.33;;;;;-147.17;100.00;59696.56;4993396;28;51087;-50
2021/07/13 09:44:47;;;;;;;;;18.67;17.67;;;;;-147.17;100.00;59696.56;4991610;28;52524;-48
2021/07/13 09:47:27;;;;;;;;;21.33;19.33;;;;;-147.17;100.00;59696.56;4993027;28;51077;-51
2021/07/13 09:49:52;;;;;;;;;15.67;14.67;;;;;-147.17;100.00;59696.56;5001097;28;51080;-48
2021/07/13 09:52:23;;;;;;;;;15.67;15.67;;;;;-147.17;100.00;59696.56;5012974;28;51007;-48
2021/07/13 09:54:49;;;;;;;;;18.33;18.00;;;;;-147.17;100.00;59696.56;5011085;28;52049;-51
2021/07/13 09:57:15;;;;;;;;;15.00;14.67;;;;;-147.17;100.00;59696.56;5010576;28;51120;-46
2021/07/13 09:59:46;;;;;;;;;17.33;16.00;;;;;-147.17;100.00;59696.56;5012677;28;51192;-48
2021/07/13 10:02:15;;;;;;;;;18.67;17.67;;;;;-147.17;100.00;59696.56;5011990;28;52049;-49
2021/07/13 10:04:41;;;;;;;;;14.67;13.33;;;;;-147.17;100.00;59696.56;5011736;28;51267;-51
2021/07/13 10:07:20;;;;;;;;;18.33;17.67;;;;;-147.17;100.00;59696.56;5012103;28;50997;-54
2021/07/13 10:09:47;;;;;;;;;18.67;17.67;;;;;-147.17;100.00;59696.56;5011972;28;50966;-50
2021/07/13 10:12:14;;;;;;;;;18.33;17.67;;;;;-147.17;100.00;59696.56;5012095;28;51012;-49
2021/07/13 10:14:43;;;;;;;;;18.00;17.67;;;;;-147.17;100.00;59696.56;5011332;28;52292;-49
2021/07/13 10:17:09;;;;;;;;;21.00;19.67;;;;;-147.17;100.00;59696.56;5010649;28;51103;-48
2021/07/13 10:19:43;;;;;;;;;18.33;17.67;;;;;-147.17;100.00;59696.56;5012687;28;51184;-57
2021/07/13 10:22:09;;;;;;;;;18.00;17.00;;;;;-147.17;100.00;59696.56;5011368;28;51387;-49
2021/07/13 10:24:35;;;;;;;;;18.67;18.00;;;;;-147.17;100.00;59696.56;5011180;28;51163;-49
2021/07/13 10:27:02;;;;;;;;;16.33;15.67;;;;;-147.17;100.00;59696.56;5011606;28;51174;-49
2021/07/13 10:29:34;;;;;;;;;16.67;16.33;;;;;-147.17;100.00;59696.56;5012411;28;51082;-49
2021/07/13 10:32:03;;;;;;;;;18.67;18.33;;;;;-147.17;100.00;59696.56;5011912;28;51328;-49
2021/07/13 10:34:48;;;;;;;;;23.33;19.33;;;;;-147.17;100.00;59696.56;5010817;28;52815;-49
2021/07/13 10:37:32;;;;;;;;;27.00;24.00;;;;;-147.17;100.00;59696.56;5011642;28;50978;-47
2021/07/13 10:40:14;;;;;;;;;22.00;21.25;;;;;-147.17;100.00;59696.56;4991988;28;50946;-49
2021/07/13 10:42:46;;;;;;;;;22.33;20.67;;;;;-147.17;100.00;59696.56;4992498;28;51105;-49
2021/07/13 10:45:14;;;;;;;;;24.00;23.00;;;;;-147.17;100.00;59696.56;4992181;28;52058;-49
2021/07/13 10:48:06;;;;;;;;;31.75;25.00;;;;;-147.17;100.00;59696.56;4991730;28;51137;-48
2021/07/13 10:50:36;;;;;;;;;27.00;25.50;;;;;-147.17;100.00;59696.56;4991782;28;51076;-48
2021/07/13 10:53:05;;;;;;;;;22.25;22.00;;;;;-147.17;100.00;59696.56;4992007;28;51231;-48
2021/07/13 10:55:30;;;;;;;;;21.33;19.67;;;;;-147.17;100.00;59696.56;4996496;28;51914;-48
2021/07/13 10:58:14;;;;;;;;;24.75;24.00;;;;;-147.17;100.00;59696.56;4997170;28;51010;-49